createdAt,value
2023-02-13T00:00:09.876Z,9.10
2023-02-13T00:02:57.595Z,9.30
2023-02-13T00:05:45.737Z,9.40
2023-02-13T00:08:33.779Z,9.30
2023-02-13T00:11:21.416Z,9.20
2023-02-13T00:14:09.325Z,9.20
2023-02-13T00:16:56.894Z,9.40
2023-02-13T00:19:44.699Z,9.30
2023-02-13T00:22:37.273Z,9.30
2023-02-13T00:25:25.139Z,9.30
2023-02-13T00:28:13.053Z,9.30
2023-02-13T00:31:07.482Z,9.40
2023-02-13T00:33:55.869Z,9.30
2023-02-13T00:36:43.981Z,9.20
2023-02-13T00:39:31.665Z,9.20
2023-02-13T00:42:20.722Z,9.30
2023-02-13T00:45:09.185Z,9.30
2023-02-13T00:47:56.929Z,9.20
2023-02-13T00:50:46.395Z,9.20
2023-02-13T00:53:36.289Z,9.10
2023-02-13T00:56:24.432Z,9.10
2023-02-13T00:59:12.459Z,9.00
2023-02-13T01:02:00.370Z,9.20
2023-02-13T01:04:48.797Z,9.00
2023-02-13T01:07:36.544Z,9.00
2023-02-13T01:10:24.253Z,9.10
2023-02-13T01:13:13.433Z,9.00
2023-02-13T01:16:02.499Z,9.00
2023-02-13T01:18:50.641Z,9.20
2023-02-13T01:21:38.237Z,9.20
2023-02-13T01:24:25.811Z,9.30
2023-02-13T01:27:13.453Z,9.30
2023-02-13T01:30:01.285Z,9.20
2023-02-13T01:32:49.845Z,8.90
2023-02-13T01:35:40.505Z,9.20
2023-02-13T01:38:28.301Z,9.20
2023-02-13T01:41:16.091Z,9.10
2023-02-13T01:44:04.926Z,9.20
2023-02-13T01:46:52.642Z,9.20
2023-02-13T01:49:41.893Z,9.20
2023-02-13T01:52:30.592Z,9.30
2023-02-13T01:55:20.689Z,9.20
2023-02-13T01:58:14.451Z,9.30
2023-02-13T02:01:04.044Z,9.30
2023-02-13T02:04:33.839Z,9.50
2023-02-13T02:07:26.526Z,9.30
2023-02-13T02:10:19.660Z,9.40
2023-02-13T02:13:14.950Z,9.30
2023-02-13T02:16:03.738Z,9.10
2023-02-13T02:18:51.904Z,9.20
2023-02-13T02:22:09.086Z,9.20
2023-02-13T02:25:27.491Z,9.40
2023-02-13T02:28:39.567Z,9.30
2023-02-13T02:32:22.883Z,9.30
2023-02-13T02:35:38.973Z,9.40
2023-02-13T02:38:59.037Z,9.40
2023-02-13T02:42:08.127Z,9.50
2023-02-13T02:45:50.517Z,9.50
2023-02-13T02:49:34.807Z,9.50
2023-02-13T02:52:31.805Z,9.50
2023-02-13T02:55:48.290Z,9.40
2023-02-13T02:59:09.464Z,9.50
2023-02-13T03:02:17.721Z,9.60
2023-02-13T03:05:38.074Z,9.50
2023-02-13T03:08:48.136Z,9.60
2023-02-13T03:12:08.545Z,9.60
2023-02-13T03:14:56.150Z,9.70
2023-02-13T03:18:02.774Z,9.80
2023-02-13T03:21:31.730Z,9.70
2023-02-13T03:24:50.997Z,9.60
2023-02-13T03:28:58.003Z,9.70
2023-02-13T03:32:05.731Z,9.70
2023-02-13T03:35:57.941Z,9.60
2023-02-13T03:39:13.815Z,9.50
2023-02-13T03:42:07.185Z,9.60
2023-02-13T03:45:25.952Z,9.70
2023-02-13T03:48:37.950Z,9.80
2023-02-13T03:51:41.582Z,9.70
2023-02-13T03:55:11.812Z,9.70
2023-02-13T03:58:32.220Z,9.70
2023-02-13T04:01:25.497Z,9.60
2023-02-13T04:04:27.965Z,9.70
2023-02-13T04:07:30.857Z,9.70
2023-02-13T04:10:20.216Z,9.70
2023-02-13T04:13:20.809Z,9.60
2023-02-13T04:16:22.888Z,9.70
2023-02-13T04:19:12.121Z,9.70
2023-02-13T04:22:03.129Z,9.80
2023-02-13T04:24:51.011Z,9.70
2023-02-13T04:27:38.685Z,9.80
2023-02-13T04:30:26.370Z,9.80
2023-02-13T04:33:14.047Z,9.90
2023-02-13T04:36:04.936Z,9.90
2023-02-13T04:38:52.770Z,10.00
2023-02-13T04:41:40.937Z,9.90
2023-02-13T04:44:28.778Z,9.80
2023-02-13T04:47:16.462Z,9.80
2023-02-13T04:50:04.592Z,9.80
2023-02-13T04:52:56.966Z,9.80
2023-02-13T04:55:44.776Z,9.80
2023-02-13T04:58:32.791Z,9.90
2023-02-13T05:01:20.470Z,9.80
2023-02-13T05:04:08.212Z,9.80
2023-02-13T05:06:56.461Z,9.80
2023-02-13T05:09:44.136Z,9.80
2023-02-13T05:12:32.807Z,9.80
2023-02-13T05:15:20.856Z,9.80
2023-02-13T05:18:08.522Z,9.80
2023-02-13T05:21:14.765Z,9.80
2023-02-13T05:24:02.286Z,9.70
2023-02-13T05:26:50.378Z,9.80
2023-02-13T05:29:37.901Z,9.70
2023-02-13T05:32:26.056Z,9.80
2023-02-13T05:35:13.603Z,9.70
2023-02-13T05:38:01.245Z,9.70
2023-02-13T05:40:49.094Z,9.70
2023-02-13T05:43:36.762Z,9.70
2023-02-13T05:46:24.694Z,9.60
2023-02-13T05:49:15.982Z,9.70
2023-02-13T05:52:03.979Z,9.60
2023-02-13T05:54:53.255Z,9.70
2023-02-13T05:57:41.265Z,9.70
2023-02-13T06:00:28.933Z,9.80
2023-02-13T06:03:16.929Z,9.70
2023-02-13T06:06:04.938Z,9.80
2023-02-13T06:08:52.968Z,9.70
2023-02-13T06:11:40.611Z,9.70
2023-02-13T06:14:28.539Z,9.70
2023-02-13T06:17:16.304Z,9.60
2023-02-13T06:20:04.149Z,9.70
2023-02-13T06:22:53.251Z,9.70
2023-02-13T06:25:41.254Z,9.60
2023-02-13T06:28:28.974Z,9.70
2023-02-13T06:31:17.037Z,9.50
2023-02-13T06:34:05.263Z,9.60
2023-02-13T06:36:53.343Z,9.60
2023-02-13T06:39:41.096Z,9.70
2023-02-13T06:42:29.256Z,9.60
2023-02-13T06:45:17.253Z,9.60
2023-02-13T06:48:05.255Z,9.70
2023-02-13T06:50:53.247Z,9.70
2023-02-13T06:53:40.929Z,9.60
2023-02-13T06:56:29.076Z,9.80
2023-02-13T06:59:16.930Z,9.90
2023-02-13T07:02:04.927Z,9.90
2023-02-13T07:04:52.526Z,9.80
2023-02-13T07:07:42.890Z,9.90
2023-02-13T07:10:30.620Z,9.90
2023-02-13T07:13:18.201Z,10.00
2023-02-13T07:16:06.470Z,10.00
2023-02-13T07:18:54.528Z,10.20
2023-02-13T07:21:42.480Z,10.20
2023-02-13T07:24:30.058Z,10.20
2023-02-13T07:27:18.097Z,10.30
2023-02-13T07:30:07.164Z,10.20
2023-02-13T07:32:58.012Z,10.20
2023-02-13T07:35:51.500Z,10.30
2023-02-13T07:38:39.133Z,10.20
2023-02-13T07:41:27.193Z,10.10
2023-02-13T07:44:14.813Z,9.90
2023-02-13T07:47:02.452Z,9.70
2023-02-13T07:49:50.540Z,9.80
2023-02-13T07:52:38.947Z,10.00
2023-02-13T07:55:30.381Z,10.00
2023-02-13T07:58:17.993Z,10.20
2023-02-13T08:01:10.884Z,10.30
2023-02-13T08:03:58.444Z,10.70
2023-02-13T08:06:46.043Z,10.80
2023-02-13T08:09:53.432Z,10.70
2023-02-13T08:12:41.829Z,10.80
2023-02-13T08:15:29.415Z,10.80
2023-02-13T08:18:18.997Z,11.00
2023-02-13T08:21:07.530Z,10.90
2023-02-13T08:23:55.281Z,10.50
2023-02-13T08:26:43.560Z,10.60
2023-02-13T08:29:31.171Z,10.70
2023-02-13T08:32:19.373Z,10.70
2023-02-13T08:35:07.339Z,10.70
2023-02-13T08:37:55.044Z,10.70
2023-02-13T08:40:42.693Z,10.90
2023-02-13T08:43:30.390Z,10.80
2023-02-13T08:46:19.092Z,10.90
2023-02-13T08:49:07.215Z,10.80
2023-02-13T08:51:55.022Z,11.00
2023-02-13T08:54:42.516Z,11.00
2023-02-13T08:57:31.312Z,11.20
2023-02-13T09:00:19.811Z,11.20
2023-02-13T09:03:09.434Z,11.50
2023-02-13T09:06:03.418Z,11.50
2023-02-13T09:08:51.012Z,11.60
2023-02-13T09:11:38.876Z,11.50
2023-02-13T09:14:27.321Z,11.50
2023-02-13T09:17:18.624Z,11.50
2023-02-13T09:20:07.744Z,11.30
2023-02-13T09:22:57.086Z,11.30
2023-02-13T09:25:44.781Z,11.20
2023-02-13T09:28:35.022Z,11.20
2023-02-13T09:31:24.694Z,11.40
2023-02-13T09:34:12.776Z,11.60
2023-02-13T09:37:00.337Z,11.50
2023-02-13T09:39:48.189Z,11.70
2023-02-13T09:42:37.201Z,11.60
2023-02-13T09:45:25.137Z,11.70
2023-02-13T09:48:29.185Z,11.80
2023-02-13T09:51:21.332Z,12.00
2023-02-13T09:54:15.870Z,12.10
2023-02-13T09:57:31.744Z,12.30
2023-02-13T10:00:42.882Z,12.00
2023-02-13T10:03:59.109Z,12.00
2023-02-13T10:07:05.151Z,12.00
2023-02-13T10:10:05.580Z,12.00
2023-02-13T10:13:49.909Z,12.20
2023-02-13T10:17:05.777Z,12.30
2023-02-13T10:20:16.215Z,12.40
2023-02-13T10:23:40.726Z,12.50
2023-02-13T10:26:45.792Z,12.40
2023-02-13T10:30:04.362Z,12.50
2023-02-13T10:33:26.116Z,12.50
2023-02-13T10:36:31.862Z,12.60
2023-02-13T10:39:30.095Z,12.60
2023-02-13T10:42:24.859Z,12.70
2023-02-13T10:45:55.772Z,12.90
2023-02-13T10:48:55.492Z,12.60
2023-02-13T10:52:16.132Z,12.90
2023-02-13T10:55:25.180Z,12.90
2023-02-13T10:58:50.719Z,13.10
2023-02-13T11:01:56.686Z,12.70
2023-02-13T11:04:45.283Z,12.90
2023-02-13T11:07:34.532Z,13.20
2023-02-13T11:10:27.271Z,13.20
2023-02-13T11:13:25.497Z,13.00
2023-02-13T11:16:14.155Z,13.10
2023-02-13T11:19:01.854Z,13.40
2023-02-13T11:21:57.730Z,13.30
2023-02-13T11:25:04.365Z,13.50
2023-02-13T11:28:13.446Z,13.60
2023-02-13T11:31:14.929Z,13.60
2023-02-13T11:34:29.798Z,13.80
2023-02-13T11:37:30.175Z,13.70
2023-02-13T11:40:32.505Z,13.70
2023-02-13T11:43:35.428Z,13.90
2023-02-13T11:46:27.062Z,14.10
2023-02-13T11:49:33.560Z,14.10
2023-02-13T11:52:27.988Z,14.10
2023-02-13T11:56:07.122Z,14.30
2023-02-13T11:59:02.640Z,13.90
2023-02-13T12:02:16.502Z,14.00
2023-02-13T12:05:25.588Z,14.10
2023-02-13T12:08:13.500Z,14.30
2023-02-13T12:11:10.530Z,14.60
2023-02-13T12:13:58.521Z,14.60
2023-02-13T12:17:10.832Z,14.30
2023-02-13T12:20:01.748Z,14.40
2023-02-13T12:23:10.552Z,14.70
2023-02-13T12:26:26.722Z,14.60
2023-02-13T12:29:36.219Z,14.80
2023-02-13T12:33:11.647Z,14.80
2023-02-13T12:36:22.183Z,14.50
2023-02-13T12:39:38.059Z,14.50
2023-02-13T12:42:41.414Z,14.50
2023-02-13T12:45:58.336Z,14.70
2023-02-13T12:49:13.750Z,14.50
2023-02-13T12:52:22.336Z,14.60
2023-02-13T12:55:51.621Z,14.90
2023-02-13T12:59:08.557Z,15.00
2023-02-13T13:02:59.648Z,15.00
2023-02-13T13:06:12.374Z,15.10
2023-02-13T13:09:21.816Z,15.00
2023-02-13T13:12:32.741Z,15.20
2023-02-13T13:15:41.776Z,15.30
2023-02-13T13:19:26.871Z,15.40
2023-02-13T13:22:38.241Z,15.10
2023-02-13T13:26:08.922Z,15.20
2023-02-13T13:29:01.737Z,15.30
2023-02-13T13:32:02.650Z,15.30
2023-02-13T13:34:50.525Z,15.10
2023-02-13T13:38:03.014Z,15.30
2023-02-13T13:41:26.627Z,15.40
2023-02-13T13:44:35.806Z,15.40
2023-02-13T13:47:54.372Z,15.40
2023-02-13T13:50:44.660Z,15.60
2023-02-13T13:53:32.925Z,15.50
2023-02-13T13:56:20.962Z,15.40
2023-02-13T13:59:19.059Z,15.40
2023-02-13T14:03:12.709Z,15.40
2023-02-13T14:06:06.604Z,15.40
2023-02-13T14:08:59.390Z,15.60
2023-02-13T14:11:47.379Z,15.60
2023-02-13T14:14:34.859Z,15.60
2023-02-13T14:17:47.252Z,15.70
2023-02-13T14:20:53.072Z,15.50
2023-02-13T14:23:50.974Z,15.50
2023-02-13T14:26:41.424Z,15.50
2023-02-13T14:29:33.251Z,15.70
2023-02-13T14:32:41.420Z,15.50
2023-02-13T14:35:39.329Z,15.60
2023-02-13T14:38:28.689Z,15.60
2023-02-13T14:41:58.704Z,15.70
2023-02-13T14:44:56.496Z,15.70
2023-02-13T14:47:56.746Z,15.60
2023-02-13T14:50:51.695Z,15.60
2023-02-13T14:53:53.739Z,15.70
2023-02-13T14:56:47.528Z,15.70
2023-02-13T14:59:41.592Z,15.80
2023-02-13T15:02:37.452Z,15.80
2023-02-13T15:05:35.829Z,15.90
2023-02-13T15:08:31.803Z,15.70
2023-02-13T15:11:43.847Z,15.80
2023-02-13T15:14:36.317Z,15.70
2023-02-13T15:17:30.223Z,15.90
2023-02-13T15:20:27.706Z,15.90
2023-02-13T15:23:32.431Z,15.80
2023-02-13T15:26:24.170Z,16.00
2023-02-13T15:29:29.286Z,15.90
2023-02-13T15:32:26.383Z,15.80
2023-02-13T15:35:37.652Z,15.80
2023-02-13T15:38:32.366Z,15.40
2023-02-13T15:41:28.485Z,15.20
2023-02-13T15:44:38.484Z,15.10
2023-02-13T15:47:32.907Z,14.80
2023-02-13T15:50:34.775Z,14.50
2023-02-13T15:53:22.781Z,14.30
2023-02-13T15:56:15.839Z,14.20
2023-02-13T15:59:04.680Z,14.30
2023-02-13T16:01:53.394Z,14.00
2023-02-13T16:04:42.693Z,13.80
2023-02-13T16:07:30.778Z,13.80
2023-02-13T16:10:33.721Z,13.80
2023-02-13T16:13:21.954Z,13.70
2023-02-13T16:16:11.749Z,13.70
2023-02-13T16:18:59.940Z,13.70
2023-02-13T16:21:50.065Z,13.60
2023-02-13T16:24:37.887Z,13.60
2023-02-13T16:27:29.008Z,13.30
2023-02-13T16:30:34.095Z,13.20
2023-02-13T16:33:32.090Z,13.00
2023-02-13T16:36:29.579Z,12.80
2023-02-13T16:39:30.942Z,12.60
2023-02-13T16:42:20.628Z,12.40
2023-02-13T16:45:24.671Z,12.30
2023-02-13T16:48:15.920Z,12.10
2023-02-13T16:51:04.136Z,12.00
2023-02-13T16:54:21.614Z,11.80
2023-02-13T16:57:15.344Z,11.70
2023-02-13T17:00:22.275Z,11.60
2023-02-13T17:03:11.514Z,11.50
2023-02-13T17:06:04.895Z,11.40
2023-02-13T17:08:54.541Z,11.30
2023-02-13T17:11:42.379Z,11.20
2023-02-13T17:14:29.900Z,11.10
2023-02-13T17:17:22.076Z,11.00
2023-02-13T17:20:19.976Z,10.90
2023-02-13T17:23:20.467Z,10.90
2023-02-13T17:26:08.131Z,10.80
2023-02-13T17:28:56.143Z,10.80
2023-02-13T17:31:44.288Z,10.70
2023-02-13T17:34:32.146Z,10.80
2023-02-13T17:37:28.476Z,10.80
2023-02-13T17:40:23.484Z,10.80
2023-02-13T17:43:14.395Z,10.70
2023-02-13T17:46:02.385Z,10.70
2023-02-13T17:48:49.986Z,10.70
2023-02-13T17:51:40.970Z,10.60
2023-02-13T17:54:28.775Z,10.50
2023-02-13T17:57:19.178Z,10.50
2023-02-13T18:00:08.025Z,10.40
2023-02-13T18:02:56.870Z,10.50
2023-02-13T18:05:49.243Z,10.50
2023-02-13T18:08:37.246Z,10.40
2023-02-13T18:11:24.925Z,10.50
2023-02-13T18:14:12.633Z,10.50
2023-02-13T18:17:01.186Z,10.40
2023-02-13T18:19:50.876Z,10.50
2023-02-13T18:22:38.932Z,10.50
2023-02-13T18:25:27.174Z,10.50
2023-02-13T18:28:14.850Z,10.50
2023-02-13T18:31:03.099Z,10.50
2023-02-13T18:33:50.848Z,10.50
2023-02-13T18:36:38.820Z,10.50
2023-02-13T18:39:26.696Z,10.50
2023-02-13T18:42:14.856Z,10.50
2023-02-13T18:45:03.805Z,10.50
2023-02-13T18:47:51.500Z,10.50
2023-02-13T18:50:42.058Z,10.50
2023-02-13T18:53:30.792Z,10.60
2023-02-13T18:56:20.417Z,10.60
2023-02-13T18:59:08.437Z,10.50
2023-02-13T19:01:56.642Z,10.40
2023-02-13T19:04:44.622Z,10.50
2023-02-13T19:07:32.301Z,10.40
2023-02-13T19:10:20.932Z,10.50
2023-02-13T19:13:08.622Z,10.50
2023-02-13T19:15:56.707Z,10.50
2023-02-13T19:18:52.914Z,10.50
2023-02-13T19:21:41.188Z,10.50
2023-02-13T19:24:28.862Z,10.50
2023-02-13T19:27:17.661Z,10.50
2023-02-13T19:30:09.563Z,10.50
2023-02-13T19:32:57.361Z,10.60
2023-02-13T19:35:45.105Z,10.50
2023-02-13T19:38:32.957Z,10.60
2023-02-13T19:41:20.810Z,10.50
2023-02-13T19:44:11.671Z,10.50
2023-02-13T19:46:59.739Z,10.40
2023-02-13T19:49:48.314Z,10.30
2023-02-13T19:52:36.630Z,10.20
2023-02-13T19:55:26.225Z,10.10
2023-02-13T19:58:14.322Z,9.90
2023-02-13T20:01:20.831Z,9.80
2023-02-13T20:04:10.055Z,9.70
2023-02-13T20:06:58.476Z,9.60
2023-02-13T20:09:46.300Z,9.50
2023-02-13T20:12:34.054Z,9.40
2023-02-13T20:15:23.978Z,9.30
2023-02-13T20:18:11.545Z,9.20
2023-02-13T20:20:59.927Z,9.10
2023-02-13T20:23:52.118Z,9.10
2023-02-13T20:26:40.622Z,9.00
2023-02-13T20:29:28.285Z,8.90
2023-02-13T20:32:16.869Z,8.90
2023-02-13T20:35:06.393Z,8.90
2023-02-13T20:37:54.365Z,8.80
2023-02-13T20:40:42.395Z,8.80
2023-02-13T20:43:29.906Z,8.80
2023-02-13T20:46:18.477Z,8.80
2023-02-13T20:49:07.012Z,8.70
2023-02-13T20:51:54.617Z,8.70
2023-02-13T20:54:42.367Z,8.70
2023-02-13T20:57:33.573Z,8.70
2023-02-13T21:00:21.896Z,8.60
2023-02-13T21:03:09.728Z,8.60
2023-02-13T21:05:57.907Z,8.60
2023-02-13T21:08:45.566Z,8.70
2023-02-13T21:11:34.617Z,8.70
2023-02-13T21:14:22.302Z,8.70
2023-02-13T21:17:09.910Z,8.80
2023-02-13T21:19:57.583Z,8.70
2023-02-13T21:22:45.241Z,8.70
2023-02-13T21:25:34.526Z,8.60
2023-02-13T21:28:23.570Z,8.50
2023-02-13T21:31:16.693Z,8.50
2023-02-13T21:34:09.098Z,8.40
2023-02-13T21:36:57.007Z,8.40
2023-02-13T21:39:44.770Z,8.50
2023-02-13T21:42:32.573Z,8.40
2023-02-13T21:45:20.484Z,8.40
2023-02-13T21:48:08.154Z,8.70
2023-02-13T21:50:55.751Z,8.70
2023-02-13T21:53:45.110Z,8.70
2023-02-13T21:56:41.018Z,8.70
2023-02-13T21:59:28.770Z,8.60
2023-02-13T22:02:16.926Z,8.50
2023-02-13T22:05:05.737Z,8.50
2023-02-13T22:08:12.307Z,8.40
2023-02-13T22:11:01.902Z,8.50
2023-02-13T22:13:49.715Z,8.50
2023-02-13T22:16:39.604Z,8.40
2023-02-13T22:19:27.836Z,8.40
2023-02-13T22:22:15.907Z,8.40
2023-02-13T22:25:03.553Z,8.40
2023-02-13T22:27:51.072Z,8.30
2023-02-13T22:30:39.312Z,8.30
2023-02-13T22:33:28.139Z,8.20
2023-02-13T22:36:17.200Z,8.20
2023-02-13T22:39:06.928Z,8.10
2023-02-13T22:41:57.063Z,8.10
2023-02-13T22:44:44.946Z,8.00
2023-02-13T22:47:32.571Z,8.00
2023-02-13T22:50:20.972Z,8.00
2023-02-13T22:53:08.760Z,7.90
2023-02-13T22:55:56.692Z,8.00
2023-02-13T22:58:44.627Z,7.90
2023-02-13T23:01:32.436Z,7.90
2023-02-13T23:04:20.938Z,7.90
2023-02-13T23:07:08.626Z,7.90
2023-02-13T23:09:56.309Z,7.90
2023-02-13T23:12:46.530Z,7.90
2023-02-13T23:15:34.755Z,7.90
2023-02-13T23:18:22.519Z,7.80
2023-02-13T23:21:11.191Z,7.80
2023-02-13T23:23:59.689Z,7.80
2023-02-13T23:26:47.508Z,7.70
2023-02-13T23:29:35.478Z,7.70
2023-02-13T23:32:23.159Z,7.70
2023-02-13T23:35:12.410Z,7.70
2023-02-13T23:38:00.138Z,7.70
2023-02-13T23:40:47.977Z,7.70
2023-02-13T23:43:35.819Z,7.60
2023-02-13T23:46:23.854Z,7.70
2023-02-13T23:49:11.811Z,7.70
2023-02-13T23:52:06.409Z,7.80
2023-02-13T23:54:54.199Z,7.70
2023-02-13T23:57:42.216Z,7.80
